Time;durP1;ratioP1;P1;durP2;ratioP2;P2;SDS_P1;SDS_P2;PMS_P1;PMS_P2;Temp;Humidity;BMP_temperature;BMP_pressure;BME280_temperature;BME280_humidity;BME280_pressure;Samples;Min_cycle;Max_cycle;Signal;HPM_P1;HPM_P2
2022/03/17 06:46:58;;;;;;;;;12.75;7.00;;;;;16.58;56.66;102517.69;5039244;27;46951;-75
2022/03/17 06:49:23;;;;;;;;;8.75;6.50;;;;;16.78;56.83;102529.19;5038151;28;45691;-74
2022/03/17 06:51:49;;;;;;;;;10.50;7.50;;;;;17.05;56.57;102533.22;5039933;28;45447;-78
2022/03/17 06:54:14;;;;;;;;;6.00;4.50;;;;;17.34;56.25;102536.16;5047934;28;46296;-75
2022/03/17 06:56:39;;;;;;;;;5.75;4.50;;;;;17.63;56.16;102539.88;5045410;28;47416;-75
2022/03/17 06:59:04;;;;;;;;;6.50;5.75;;;;;17.95;55.66;102541.75;5051299;28;45444;-75
2022/03/17 07:01:30;;;;;;;;;4.00;4.00;;;;;18.27;55.49;102548.94;5045957;28;45455;-75
2022/03/17 07:03:55;;;;;;;;;5.00;5.00;;;;;18.60;55.37;102557.78;5047536;28;45555;-75
2022/03/17 07:06:20;;;;;;;;;6.25;5.00;;;;;18.90;54.87;102554.19;5048808;28;46484;-76
2022/03/17 07:08:46;;;;;;;;;7.00;5.25;;;;;19.19;54.62;102556.94;5042529;28;47090;-75
2022/03/17 07:11:11;;;;;;;;;5.50;5.00;;;;;19.48;53.53;102562.34;5043333;28;45586;-75
2022/03/17 07:13:37;;;;;;;;;8.00;5.75;;;;;19.75;53.65;102566.94;5047015;28;45702;-75
2022/03/17 07:16:02;;;;;;;;;6.25;6.00;;;;;20.01;53.44;102570.66;5049869;28;50369;-75
2022/03/17 07:18:28;;;;;;;;;7.67;6.00;;;;;20.24;52.61;102578.19;5050085;28;45384;-75
2022/03/17 07:20:57;;;;;;;;;6.67;5.00;;;;;20.48;52.24;102585.63;5046862;28;45398;-75
2022/03/17 07:23:23;;;;;;;;;8.67;6.00;;;;;20.69;51.99;102585.13;5043925;28;45496;-75
2022/03/17 07:25:48;;;;;;;;;7.00;5.67;;;;;20.92;52.02;102599.75;5048685;28;46540;-75
2022/03/17 07:28:15;;;;;;;;;6.67;6.00;;;;;21.11;51.83;102602.06;5050541;28;45775;-75
2022/03/17 07:30:41;;;;;;;;;5.00;4.00;;;;;21.29;51.54;102605.28;5041901;28;45526;-76
2022/03/17 07:33:06;;;;;;;;;4.67;3.67;;;;;21.46;51.37;102608.66;5045124;28;45628;-76
2022/03/17 07:35:33;;;;;;;;;5.67;5.67;;;;;21.62;50.42;102618.34;5040545;28;46077;-75
2022/03/17 07:37:59;;;;;;;;;7.33;7.00;;;;;21.77;50.16;102611.00;5042950;28;48518;-75
2022/03/17 07:40:25;;;;;;;;;6.00;6.00;;;;;21.92;49.99;102617.13;5047563;28;45576;-76
2022/03/17 07:42:51;;;;;;;;;8.00;5.67;;;;;22.05;50.08;102619.78;5043634;27;45768;-76
2022/03/17 07:45:16;;;;;;;;;7.67;7.67;;;;;22.17;49.74;102618.88;5045092;28;48674;-76
2022/03/17 07:47:47;;;;;;;;;8.33;8.00;;;;;22.30;49.19;102623.38;5043400;28;45541;-74
2022/03/17 07:50:12;;;;;;;;;6.67;6.00;;;;;22.38;48.88;102631.78;5039212;28;45761;-74
2022/03/17 07:52:38;;;;;;;;;9.00;7.00;;;;;22.45;48.66;102633.06;5041213;28;47168;-73
2022/03/17 07:55:04;;;;;;;;;8.00;6.67;;;;;22.54;48.46;102639.66;5036381;28;45794;-73
2022/03/17 07:57:29;;;;;;;;;7.67;5.33;;;;;22.62;48.61;102637.22;5040690;28;45816;-74
2022/03/17 07:59:54;;;;;;;;;7.67;7.00;;;;;22.73;48.06;102641.81;5031493;28;45668;-73
2022/03/17 08:02:20;;;;;;;;;7.00;6.33;;;;;22.82;48.08;102653.78;5030858;28;45416;-75
2022/03/17 08:04:48;;;;;;;;;6.67;6.67;;;;;22.92;48.06;102663.91;5028907;28;45529;-75
2022/03/17 08:07:14;;;;;;;;;8.67;8.00;;;;;22.99;47.53;102666.03;5022545;28;45531;-74
2022/03/17 08:09:39;;;;;;;;;7.67;6.00;;;;;23.06;47.72;102658.28;5028020;28;45436;-77
2022/03/17 08:12:05;;;;;;;;;7.00;7.00;;;;;23.14;47.89;102665.81;5032242;28;45486;-79
2022/03/17 08:14:31;;;;;;;;;7.33;7.00;;;;;23.22;47.51;102670.63;5029809;28;46636;-77
2022/03/17 08:16:56;;;;;;;;;9.67;7.67;;;;;23.30;47.88;102669.03;5030868;28;45468;-77
2022/03/17 08:19:22;;;;;;;;;8.00;8.00;;;;;23.40;47.62;102677.34;5033731;28;45531;-78
2022/03/17 08:21:47;;;;;;;;;9.00;9.00;;;;;23.49;47.21;102678.47;5032005;28;45386;-80
2022/03/17 08:24:13;;;;;;;;;8.67;7.33;;;;;23.58;47.42;102679.56;5034634;28;46025;-80
2022/03/17 08:26:39;;;;;;;;;7.33;7.00;;;;;23.67;47.08;102695.09;5032329;28;45741;-78
2022/03/17 08:29:06;;;;;;;;;11.67;9.33;;;;;23.76;47.28;102695.38;5032591;28;45816;-78
2022/03/17 08:31:31;;;;;;;;;8.33;8.33;;;;;23.84;47.08;102701.03;5033562;28;45529;-76
2022/03/17 08:33:57;;;;;;;;;10.00;10.00;;;;;23.92;46.81;102706.69;5032578;28;46077;-76
2022/03/17 08:36:23;;;;;;;;;9.00;6.33;;;;;24.02;47.31;102711.38;5028020;28;45828;-76
2022/03/17 08:38:50;;;;;;;;;10.67;9.67;;;;;24.10;46.72;102721.66;5030948;28;45448;-73
2022/03/17 08:41:15;;;;;;;;;10.00;10.00;;;;;24.16;46.65;102721.16;5032531;28;45538;-76
2022/03/17 08:43:41;;;;;;;;;11.00;10.00;;;;;24.21;46.43;102718.91;5032482;28;45489;-74
2022/03/17 08:51:35;;;;;;;;;10.67;10.00;;;;;24.40;46.13;102737.25;5036012;28;45465;-78
2022/03/17 08:54:00;;;;;;;;;10.33;8.67;;;;;24.46;46.26;102746.75;5032469;28;46219;-76
2022/03/17 08:56:25;;;;;;;;;12.67;11.00;;;;;24.51;46.03;102755.38;5037072;28;45629;-76
2022/03/17 08:58:51;;;;;;;;;12.33;12.00;;;;;24.55;45.93;102759.56;5035836;28;45566;-77
2022/03/17 09:01:17;;;;;;;;;9.33;9.00;;;;;24.58;45.88;102762.03;5030777;28;45502;-75
2022/03/17 09:03:42;;;;;;;;;10.33;10.33;;;;;24.60;45.83;102762.75;5034441;28;45707;-74
2022/03/17 09:06:10;;;;;;;;;9.00;9.00;;;;;24.61;45.68;102756.34;5046363;28;45496;-75
2022/03/17 09:08:36;;;;;;;;;10.33;8.67;;;;;24.64;46.03;102767.94;5033857;28;45368;-75
2022/03/17 09:11:01;;;;;;;;;12.00;9.67;;;;;24.64;46.05;102768.78;5032472;28;45478;-74
2022/03/17 09:13:28;;;;;;;;;11.67;10.00;;;;;24.64;45.83;102781.53;5032186;28;45508;-75
2022/03/17 09:15:54;;;;;;;;;11.00;10.00;;;;;24.64;45.78;102779.66;5035338;28;45922;-74
2022/03/17 09:18:21;;;;;;;;;11.00;9.67;;;;;24.63;46.01;102783.38;5039202;28;45454;-74
2022/03/17 09:20:47;;;;;;;;;8.33;8.33;;;;;24.66;45.50;102782.25;5048415;28;45633;-74
2022/03/17 09:23:12;;;;;;;;;10.33;9.00;;;;;24.67;45.88;102778.53;5033618;28;46273;-74
2022/03/17 09:25:38;;;;;;;;;7.33;7.33;;;;;24.69;45.84;102790.16;5036004;28;45459;-74
2022/03/17 09:28:04;;;;;;;;;8.67;8.33;;;;;24.69;45.71;102780.13;5028554;28;45409;-74
2022/03/17 09:30:30;;;;;;;;;7.00;7.00;;;;;24.71;45.86;102788.16;5035358;28;45381;-74
2022/03/17 09:32:55;;;;;;;;;9.67;9.67;;;;;24.73;45.97;102780.75;5031180;28;46137;-75
2022/03/17 09:35:22;;;;;;;;;8.00;8.00;;;;;24.74;45.96;102786.03;5034039;28;46240;-78
2022/03/17 09:37:47;;;;;;;;;9.33;9.33;;;;;24.78;46.03;102789.38;5033920;28;45472;-76
2022/03/17 09:40:13;;;;;;;;;10.00;9.00;;;;;24.81;45.90;102788.25;5039095;28;45576;-76
2022/03/17 09:42:39;;;;;;;;;10.33;9.00;;;;;24.84;45.61;102793.47;5038162;28;51170;-77
2022/03/17 09:45:06;;;;;;;;;7.00;7.00;;;;;24.84;45.51;102790.75;5042148;28;45546;-77
2022/03/17 09:47:43;;;;;;;;;9.67;8.00;;;;;24.87;45.45;102798.63;5041613;28;45450;-76
2022/03/17 09:50:11;;;;;;;;;11.00;8.00;;;;;24.87;45.50;102804.06;5030292;28;45317;-74
2022/03/17 09:52:42;;;;;;;;;11.00;9.67;;;;;24.86;45.49;102802.34;5031606;28;46394;-74
2022/03/17 09:55:10;;;;;;;;;10.00;8.33;;;;;24.88;45.05;102810.38;5029916;28;45436;-73
2022/03/17 09:57:42;;;;;;;;;10.00;8.33;;;;;24.86;45.19;102815.94;5032625;28;45827;-73
2022/03/17 10:00:11;;;;;;;;;9.67;8.33;;;;;24.83;45.42;102813.47;5033441;28;45533;-73
2022/03/17 10:02:37;;;;;;;;;11.67;7.33;;;;;24.82;45.36;102818.03;5030484;28;45549;-73
2022/03/17 10:05:03;;;;;;;;;10.00;7.00;;;;;24.81;45.04;102812.72;5029141;28;45590;-74
2022/03/17 10:07:29;;;;;;;;;8.00;7.67;;;;;24.79;45.42;102833.69;5042506;28;45547;-74
2022/03/17 10:09:55;;;;;;;;;8.33;7.00;;;;;24.74;45.15;102815.91;5040432;28;45453;-73
2022/03/17 10:12:21;;;;;;;;;8.00;6.33;;;;;24.71;45.41;102828.88;5037443;28;52454;-75
2022/03/17 10:14:47;;;;;;;;;7.00;5.00;;;;;24.63;44.75;102828.63;5031985;28;45663;-76
2022/03/17 10:17:37;;;;;;;;;6.00;6.00;;;;;24.55;44.86;102826.56;5031456;28;45464;-75
2022/03/17 10:20:25;;;;;;;;;5.67;5.00;;;;;24.50;45.03;102832.38;5023468;28;45427;-75
2022/03/17 10:22:58;;;;;;;;;6.00;6.00;;;;;24.43;44.76;102840.16;5029909;28;46413;-75
2022/03/17 10:25:31;;;;;;;;;7.00;4.67;;;;;24.39;44.04;102845.97;5032546;28;45525;-78
2022/03/17 10:27:58;;;;;;;;;2.67;2.67;;;;;24.26;42.49;102844.22;5038004;28;45796;-75
2022/03/17 10:30:27;;;;;;;;;5.33;2.33;;;;;24.12;42.67;102841.75;5045510;28;45505;-76
2022/03/17 10:32:57;;;;;;;;;9.00;7.33;;;;;23.96;41.80;102840.22;5035006;28;46970;-75
2022/03/17 10:35:34;;;;;;;;;7.00;7.00;;;;;23.81;41.57;102848.56;5034088;28;45631;-76
2022/03/17 10:38:28;;;;;;;;;7.00;4.33;;;;;23.68;41.75;102858.63;5033804;28;45565;-76
2022/03/17 10:41:02;;;;;;;;;6.33;6.00;;;;;23.52;42.16;102858.94;5021076;28;45424;-74
2022/03/17 10:43:29;;;;;;;;;11.00;6.00;;;;;23.42;42.04;102861.50;5028655;28;46326;-77
2022/03/17 10:46:20;;;;;;;;;6.00;4.67;;;;;23.30;42.46;102858.69;5030500;28;45584;-76
2022/03/17 10:48:59;;;;;;;;;5.00;5.00;;;;;23.19;42.38;102868.59;5028813;28;45489;-76
2022/03/17 10:51:32;;;;;;;;;5.00;5.00;;;;;23.10;42.69;102862.03;5032923;28;45721;-76
2022/03/17 10:54:06;;;;;;;;;9.67;7.00;;;;;23.02;42.58;102862.63;5031712;28;45478;-76
2022/03/17 10:56:32;;;;;;;;;6.67;5.33;;;;;22.95;42.91;102869.44;5028632;28;45478;-76
2022/03/17 10:58:58;;;;;;;;;8.00;5.33;;;;;22.90;42.53;102875.22;5031086;28;45489;-77
2022/03/17 11:01:39;;;;;;;;;11.33;7.33;;;;;22.83;42.63;102872.09;5032890;28;45598;-77
2022/03/17 11:04:06;;;;;;;;;5.67;5.67;;;;;22.78;42.67;102874.28;5030936;28;46261;-77
2022/03/17 11:06:38;;;;;;;;;5.00;5.00;;;;;22.73;42.34;102881.88;5036313;28;45431;-77
2022/03/17 11:09:05;;;;;;;;;6.00;4.00;;;;;22.69;42.74;102889.34;5031829;28;45915;-78
2022/03/17 11:11:31;;;;;;;;;7.67;5.00;;;;;22.63;42.40;102881.66;5029154;28;45533;-78
2022/03/17 11:13:58;;;;;;;;;4.00;4.00;;;;;22.59;42.42;102878.31;5030648;28;47025;-78
2022/03/17 11:16:46;;;;;;;;;4.33;4.33;;;;;22.55;42.77;102890.34;5017999;28;45610;-78
2022/03/17 11:19:16;;;;;;;;;4.00;3.00;;;;;22.53;42.84;102892.25;5039992;28;45397;-78
2022/03/17 11:21:48;;;;;;;;;5.67;2.33;;;;;22.49;42.31;102882.63;5044196;28;45576;-78
2022/03/17 11:24:21;;;;;;;;;3.67;2.00;;;;;22.46;42.25;102888.25;5023594;28;46257;-78
2022/03/17 11:26:46;;;;;;;;;4.33;3.00;;;;;22.43;42.57;102894.75;5026769;28;45483;-78
2022/03/17 11:29:13;;;;;;;;;3.00;3.00;;;;;22.40;42.41;102892.25;5021385;28;45459;-77
2022/03/17 11:31:52;;;;;;;;;6.67;4.33;;;;;22.37;42.20;102890.63;5024276;28;45830;-77
2022/03/17 11:34:47;;;;;;;;;5.00;5.00;;;;;22.34;42.29;102884.56;5018667;28;51116;-77
2022/03/17 11:37:18;;;;;;;;;4.00;2.00;;;;;22.31;42.07;102890.22;5026665;28;45610;-77
2022/03/17 11:39:47;;;;;;;;;5.33;4.67;;;;;22.27;42.12;102902.22;5029734;28;45431;-77
2022/03/17 11:42:31;;;;;;;;;5.00;5.00;;;;;22.25;42.51;102902.34;5034135;28;45459;-77
2022/03/17 11:45:23;;;;;;;;;4.67;3.33;;;;;22.21;42.73;102901.69;5033601;28;47150;-77
2022/03/17 11:47:50;;;;;;;;;7.00;4.67;;;;;22.19;42.15;102902.78;5032043;28;45594;-77
2022/03/17 11:50:26;;;;;;;;;5.33;4.00;;;;;22.18;42.20;102903.72;5029161;28;45506;-78
2022/03/17 11:52:57;;;;;;;;;7.00;5.00;;;;;22.16;42.54;102911.97;5029824;28;45767;-77
2022/03/17 11:55:41;;;;;;;;;7.00;4.00;;;;;22.14;42.59;102910.34;5030104;28;45599;-77
2022/03/17 11:58:42;;;;;;;;;5.00;5.00;;;;;22.11;42.14;102920.38;5047002;28;45950;-77
2022/03/17 12:01:11;;;;;;;;;4.33;4.33;;;;;22.09;42.52;102926.88;5029667;28;45517;-76
2022/03/17 12:03:45;;;;;;;;;6.00;5.00;;;;;22.06;42.15;102929.78;5030279;28;45549;-76
2022/03/17 12:06:21;;;;;;;;;4.33;4.33;;;;;22.04;42.33;102926.31;5029557;28;46246;-76
2022/03/17 12:08:47;;;;;;;;;6.00;5.00;;;;;22.00;43.03;102931.09;5029484;28;45509;-76
2022/03/17 12:11:14;;;;;;;;;7.67;7.00;;;;;21.96;42.63;102921.44;5028126;28;45516;-78
2022/03/17 12:14:16;;;;;;;;;4.33;4.33;;;;;21.94;42.96;102923.38;5030222;28;45605;-76
2022/03/17 12:16:48;;;;;;;;;8.00;6.00;;;;;21.93;42.70;102930.63;5027953;28;51237;-79
2022/03/17 12:19:25;;;;;;;;;11.67;5.67;;;;;21.92;42.76;102922.63;5029468;28;45540;-80
2022/03/17 12:22:00;;;;;;;;;5.00;4.00;;;;;21.90;43.12;102921.88;5028212;28;45608;-77
2022/03/17 12:24:52;;;;;;;;;6.00;6.00;;;;;21.88;43.18;102924.69;5031161;28;45545;-77
2022/03/17 12:27:19;;;;;;;;;6.00;4.00;;;;;21.84;42.99;102925.84;5030900;28;46031;-77
2022/03/17 12:29:47;;;;;;;;;5.00;5.00;;;;;21.81;43.03;102934.16;5029959;28;46150;-76
2022/03/17 12:32:16;;;;;;;;;6.00;6.00;;;;;21.79;43.00;102928.84;5032078;28;45698;-76
2022/03/17 12:34:50;;;;;;;;;7.33;6.00;;;;;21.76;42.66;102925.50;5029147;28;45494;-76
2022/03/17 12:37:17;;;;;;;;;6.00;6.00;;;;;21.75;42.89;102926.47;5031355;28;47059;-76
2022/03/17 12:39:47;;;;;;;;;7.00;6.33;;;;;21.72;43.41;102924.84;5031450;28;45585;-76
2022/03/17 12:42:25;;;;;;;;;7.67;6.00;;;;;21.70;43.11;102932.13;5032165;28;45747;-76
2022/03/17 12:44:51;;;;;;;;;8.33;5.33;;;;;21.66;42.67;102934.19;5029687;28;45488;-82
2022/03/17 12:47:18;;;;;;;;;10.00;7.00;;;;;21.67;42.79;102933.22;5031819;28;46311;-75
2022/03/17 12:49:44;;;;;;;;;7.33;7.00;;;;;21.68;43.47;102942.19;5030984;28;45975;-76
2022/03/17 12:52:17;;;;;;;;;8.67;8.00;;;;;21.69;43.07;102936.69;5031100;28;45524;-75
2022/03/17 12:54:45;;;;;;;;;9.33;7.33;;;;;21.75;43.19;102934.59;5031945;28;45568;-78
2022/03/17 12:57:10;;;;;;;;;9.00;5.33;;;;;21.79;43.67;102934.25;5035088;28;46165;-75
2022/03/17 12:59:36;;;;;;;;;11.00;6.00;;;;;21.84;43.78;102929.41;5030838;28;45554;-75
2022/03/17 13:02:01;;;;;;;;;9.33;8.67;;;;;21.88;44.11;102921.09;5033328;28;45741;-75
2022/03/17 13:04:27;;;;;;;;;5.67;5.67;;;;;21.93;43.96;102929.75;5032667;28;45570;-75
2022/03/17 13:06:56;;;;;;;;;12.00;8.00;;;;;21.97;43.67;102928.56;5030423;28;45932;-75
2022/03/17 13:09:29;;;;;;;;;9.67;8.00;;;;;22.01;43.87;102924.69;5033291;28;45615;-75
2022/03/17 13:14:54;;;;;;;;;11.00;8.33;;;;;22.08;44.35;102931.41;5029828;28;45900;-75
2022/03/17 13:17:36;;;;;;;;;13.33;9.00;;;;;22.10;44.00;102926.78;5025019;28;47047;-76
2022/03/17 13:20:03;;;;;;;;;5.33;5.33;;;;;22.13;44.29;102933.81;5028724;28;45852;-75
2022/03/17 13:22:34;;;;;;;;;11.67;7.33;;;;;22.15;44.14;102931.00;5031515;28;45802;-75
2022/03/17 13:25:11;;;;;;;;;8.33;6.00;;;;;22.18;44.82;102923.53;5031677;28;45340;-76
2022/03/17 13:27:42;;;;;;;;;8.00;5.67;;;;;22.20;44.19;102929.69;5034735;28;46507;-75
2022/03/17 13:30:25;;;;;;;;;5.67;5.00;;;;;22.23;44.24;102921.38;5033427;28;47047;-77
2022/03/17 13:33:09;;;;;;;;;6.33;6.00;;;;;22.27;44.87;102929.28;5028247;28;45430;-75
2022/03/17 13:35:39;;;;;;;;;7.33;7.33;;;;;22.27;44.71;102918.47;5032362;28;45468;-76
2022/03/17 13:38:06;;;;;;;;;7.33;6.33;;;;;22.30;44.42;102920.94;5029331;28;46175;-77
2022/03/17 13:40:50;;;;;;;;;8.33;6.00;;;;;22.32;44.55;102924.41;5021945;28;45375;-76
2022/03/17 13:43:17;;;;;;;;;8.33;7.00;;;;;22.34;45.21;102925.16;5021278;28;45524;-74
2022/03/17 13:45:45;;;;;;;;;6.33;6.33;;;;;22.31;43.32;102923.53;5035937;28;45545;-74
2022/03/17 13:48:13;;;;;;;;;7.33;7.33;;;;;22.29;44.03;102925.50;5033487;28;46184;-75
2022/03/17 13:50:48;;;;;;;;;9.00;7.00;;;;;22.29;44.03;102914.69;5034265;28;45442;-75
2022/03/17 13:53:13;;;;;;;;;8.33;7.67;;;;;22.29;44.49;102922.78;5033773;28;45557;-76
2022/03/17 13:55:46;;;;;;;;;11.33;7.00;;;;;22.32;43.88;102921.69;5032204;28;45771;-77
2022/03/17 13:58:15;;;;;;;;;8.67;8.67;;;;;22.33;43.58;102918.03;5041420;28;45974;-74
2022/03/17 14:00:44;;;;;;;;;13.33;10.33;;;;;22.34;43.70;102923.31;5035494;28;45463;-78
2022/03/17 14:03:17;;;;;;;;;8.67;8.67;;;;;22.34;43.72;102917.91;5041449;28;45511;-75
2022/03/17 14:06:10;;;;;;;;;8.00;7.00;;;;;22.36;44.03;102934.91;5028396;28;45482;-75
2022/03/17 14:08:50;;;;;;;;;8.33;6.33;;;;;22.37;44.29;102930.38;5033191;28;45522;-75
2022/03/17 14:11:17;;;;;;;;;8.33;7.00;;;;;22.37;44.14;102928.50;5036789;28;45506;-75
2022/03/17 14:13:48;;;;;;;;;7.67;7.00;;;;;22.39;44.59;102928.41;5034736;28;45496;-78
2022/03/17 14:16:15;;;;;;;;;10.00;8.33;;;;;22.41;44.22;102931.00;5035535;28;45570;-78
2022/03/17 14:18:42;;;;;;;;;8.33;6.67;;;;;22.41;44.72;102931.88;5047052;28;46922;-79
2022/03/17 14:21:08;;;;;;;;;10.33;7.33;;;;;22.43;44.34;102938.03;5030644;28;45736;-78
2022/03/17 14:26:19;;;;;;;;;10.00;7.33;;;;;22.46;44.39;102935.13;5034450;28;46868;-77
2022/03/17 14:28:45;;;;;;;;;6.00;6.00;;;;;22.48;44.91;102935.03;5034515;28;45474;-76
2022/03/17 14:31:12;;;;;;;;;8.00;8.00;;;;;22.50;44.75;102941.19;5035700;28;45520;-77
2022/03/17 14:33:39;;;;;;;;;10.00;8.67;;;;;22.50;45.02;102936.66;5033199;28;45524;-76
2022/03/17 14:36:06;;;;;;;;;8.33;7.67;;;;;22.51;44.66;102938.38;5032926;28;45491;-77
2022/03/17 14:38:33;;;;;;;;;6.00;6.00;;;;;22.53;44.78;102937.38;5028707;28;46354;-77
2022/03/17 14:40:59;;;;;;;;;5.33;5.33;;;;;22.54;44.63;102939.16;5033040;28;45420;-76
2022/03/17 14:43:24;;;;;;;;;9.00;4.67;;;;;22.53;44.84;102938.28;5040029;28;45726;-75
2022/03/17 14:45:50;;;;;;;;;6.00;6.00;;;;;22.54;45.11;102933.72;5035584;28;45530;-77
2022/03/17 14:48:15;;;;;;;;;8.67;6.67;;;;;22.53;44.67;102935.56;5036717;28;47087;-77
2022/03/17 14:50:40;;;;;;;;;8.67;7.33;;;;;22.55;45.14;102944.47;5036722;28;45811;-76
2022/03/17 14:53:06;;;;;;;;;7.00;5.67;;;;;22.55;45.09;102944.47;5030900;28;45610;-76
2022/03/17 14:55:32;;;;;;;;;7.67;6.00;;;;;22.55;45.02;102947.16;5029536;28;45553;-76
2022/03/17 14:57:58;;;;;;;;;5.33;5.33;;;;;22.56;44.84;102948.03;5031541;28;47838;-76
2022/03/17 15:00:23;;;;;;;;;8.00;6.00;;;;;22.56;44.84;102948.88;5045985;28;45436;-77
2022/03/17 15:02:49;;;;;;;;;7.67;6.00;;;;;22.57;45.30;102947.06;5030723;28;46646;-74
2022/03/17 15:05:14;;;;;;;;;8.00;7.00;;;;;22.57;45.08;102947.06;5034093;28;45903;-76
2022/03/17 15:07:42;;;;;;;;;6.67;5.67;;;;;22.57;45.56;102949.78;5029511;28;46105;-77
2022/03/17 15:10:09;;;;;;;;;7.67;7.67;;;;;22.56;45.35;102951.59;5032961;28;45863;-75
2022/03/17 15:12:34;;;;;;;;;8.33;4.67;;;;;22.57;45.38;102945.22;5034401;28;45425;-79
2022/03/17 15:14:59;;;;;;;;;7.00;5.67;;;;;22.58;45.70;102943.38;5036282;28;45586;-74
2022/03/17 15:17:24;;;;;;;;;12.00;9.67;;;;;22.58;43.63;102960.50;5033392;28;50247;-74
2022/03/17 15:19:50;;;;;;;;;10.33;7.00;;;;;22.54;42.86;102953.56;5034369;28;56862;-74
2022/03/17 15:22:15;;;;;;;;;9.00;9.00;;;;;22.48;42.73;102957.53;5033390;28;45515;-74
2022/03/17 15:24:40;;;;;;;;;12.67;8.33;;;;;22.44;43.05;102958.72;5034736;28;45569;-75
2022/03/17 15:30:08;;;;;;;;;7.33;7.33;;;;;22.42;43.64;102957.97;5033277;28;45579;-75
2022/03/17 15:32:37;;;;;;;;;14.33;7.33;;;;;22.42;43.58;102965.19;5032106;28;45549;-75
2022/03/17 15:35:04;;;;;;;;;7.00;6.33;;;;;22.41;43.51;102969.75;5034432;28;45503;-75
2022/03/17 15:37:30;;;;;;;;;11.67;9.00;;;;;22.42;43.75;102970.59;5033230;28;47191;-75
2022/03/17 15:39:55;;;;;;;;;8.33;7.00;;;;;22.40;43.97;102968.00;5037572;28;45371;-76
2022/03/17 15:42:20;;;;;;;;;11.33;9.33;;;;;22.41;44.29;102964.34;5034883;28;45902;-76
2022/03/17 15:44:46;;;;;;;;;10.67;7.33;;;;;22.42;43.82;102971.50;5033333;28;45746;-76
2022/03/17 15:47:11;;;;;;;;;8.33;7.00;;;;;22.42;43.77;102966.06;5033918;28;46118;-75
2022/03/17 15:49:36;;;;;;;;;7.33;6.00;;;;;22.44;44.52;102961.41;5031346;28;45494;-75
2022/03/17 15:52:02;;;;;;;;;8.00;7.67;;;;;22.45;44.35;102965.88;5034138;28;45736;-75
2022/03/17 15:54:28;;;;;;;;;8.00;7.33;;;;;22.46;44.36;102966.72;5038605;28;45324;-76
2022/03/17 15:56:54;;;;;;;;;10.67;6.33;;;;;22.46;44.30;102969.44;5031730;28;46140;-76
2022/03/17 15:59:19;;;;;;;;;9.00;7.33;;;;;22.46;43.93;102972.13;5030404;28;45510;-76
2022/03/17 16:01:45;;;;;;;;;8.00;7.33;;;;;22.46;44.24;102973.00;5028773;28;45606;-77
2022/03/17 16:04:11;;;;;;;;;8.00;7.33;;;;;22.46;44.14;102986.53;5028337;28;46743;-77
2022/03/17 16:06:38;;;;;;;;;8.67;6.00;;;;;22.46;44.15;102983.84;5027700;28;45951;-78
2022/03/17 16:09:04;;;;;;;;;6.67;5.00;;;;;22.47;44.67;102985.56;5027287;28;45837;-78
2022/03/17 16:14:28;;;;;;;;;6.00;4.67;;;;;22.47;44.29;102981.97;5029759;28;45550;-78
2022/03/17 16:16:56;;;;;;;;;11.00;9.33;;;;;22.47;43.74;102987.38;5043855;28;47357;-77
2022/03/17 16:19:23;;;;;;;;;8.00;5.00;;;;;22.42;43.08;102987.72;5026448;28;45701;-77
2022/03/17 16:21:48;;;;;;;;;11.67;10.00;;;;;22.37;43.23;102995.28;5025830;28;45632;-76
2022/03/17 16:24:13;;;;;;;;;10.00;7.67;;;;;22.33;43.46;102997.34;5027449;28;45607;-77
2022/03/17 16:26:39;;;;;;;;;10.33;9.00;;;;;22.31;43.24;102999.28;5027046;28;46096;-77
2022/03/17 16:29:04;;;;;;;;;10.67;10.00;;;;;22.31;43.59;102998.44;5026207;28;45907;-79
2022/03/17 16:31:29;;;;;;;;;6.00;5.67;;;;;22.29;42.96;103003.94;5028264;28;45822;-78
2022/03/17 16:33:55;;;;;;;;;9.00;9.00;;;;;22.28;43.16;103004.91;5026396;28;46084;-78
2022/03/17 16:36:21;;;;;;;;;11.00;8.67;;;;;22.28;43.63;103009.44;5027398;28;46029;-78
2022/03/17 16:38:47;;;;;;;;;6.33;5.33;;;;;22.29;43.82;103008.47;5029575;28;45551;-78
2022/03/17 16:41:13;;;;;;;;;8.67;8.00;;;;;22.30;43.77;103012.91;5028750;28;45347;-78
2022/03/17 16:43:40;;;;;;;;;7.33;7.33;;;;;22.29;43.68;103020.19;5024726;28;45519;-79
2022/03/17 16:46:06;;;;;;;;;4.00;4.00;;;;;22.29;44.22;103024.72;5024079;28;50672;-81
2022/03/17 16:48:32;;;;;;;;;10.00;5.67;;;;;22.30;43.76;103018.31;5043811;28;45499;-78
2022/03/17 16:50:58;;;;;;;;;6.00;6.00;;;;;22.31;44.12;103022.78;5029503;28;45435;-78
2022/03/17 16:53:23;;;;;;;;;9.00;6.67;;;;;22.33;44.41;103026.25;5030020;28;45388;-79
2022/03/17 16:55:51;;;;;;;;;9.00;7.67;;;;;22.33;43.48;103028.94;5026788;28;45455;-77
